sensor_id;sensor_type;location;lat;lon;timestamp;P1;durP1;ratioP1;P2;durP2;ratioP2
52686;SDS011;38584;49.426;8.396;2022-07-29T00:00:58;11.98;;;2.78;;
52686;SDS011;38584;49.426;8.396;2022-07-29T00:03:24;12.68;;;2.88;;
52686;SDS011;38584;49.426;8.396;2022-07-29T00:05:49;11.38;;;2.75;;
52686;SDS011;38584;49.426;8.396;2022-07-29T00:08:16;13.90;;;3.33;;
52686;SDS011;38584;49.426;8.396;2022-07-29T00:10:42;12.05;;;2.70;;
52686;SDS011;38584;49.426;8.396;2022-07-29T00:13:07;11.05;;;2.67;;
52686;SDS011;38584;49.426;8.396;2022-07-29T00:15:33;11.40;;;3.28;;
52686;SDS011;38584;49.426;8.396;2022-07-29T00:17:58;10.63;;;2.90;;
52686;SDS011;38584;49.426;8.396;2022-07-29T00:20:24;12.68;;;2.92;;
52686;SDS011;38584;49.426;8.396;2022-07-29T00:22:49;9.00;;;2.90;;
52686;SDS011;38584;49.426;8.396;2022-07-29T00:25:14;14.10;;;2.50;;
52686;SDS011;38584;49.426;8.396;2022-07-29T00:27:40;10.77;;;3.10;;
52686;SDS011;38584;49.426;8.396;2022-07-29T00:30:05;11.70;;;2.92;;
52686;SDS011;38584;49.426;8.396;2022-07-29T00:32:31;10.25;;;2.70;;
52686;SDS011;38584;49.426;8.396;2022-07-29T00:34:57;11.00;;;2.88;;
52686;SDS011;38584;49.426;8.396;2022-07-29T00:37:41;14.15;;;3.40;;
52686;SDS011;38584;49.426;8.396;2022-07-29T00:40:06;10.30;;;3.10;;
52686;SDS011;38584;49.426;8.396;2022-07-29T00:42:45;12.00;;;2.50;;
52686;SDS011;38584;49.426;8.396;2022-07-29T00:45:12;13.30;;;2.80;;
52686;SDS011;38584;49.426;8.396;2022-07-29T00:47:38;11.15;;;3.05;;
52686;SDS011;38584;49.426;8.396;2022-07-29T00:50:04;7.00;;;2.50;;
52686;SDS011;38584;49.426;8.396;2022-07-29T00:52:30;9.27;;;2.80;;
52686;SDS011;38584;49.426;8.396;2022-07-29T00:54:56;9.35;;;2.58;;
52686;SDS011;38584;49.426;8.396;2022-07-29T00:57:21;16.20;;;3.00;;
52686;SDS011;38584;49.426;8.396;2022-07-29T00:59:46;9.43;;;2.60;;
52686;SDS011;38584;49.426;8.396;2022-07-29T01:02:12;10.18;;;2.80;;
52686;SDS011;38584;49.426;8.396;2022-07-29T01:04:37;19.35;;;3.28;;
52686;SDS011;38584;49.426;8.396;2022-07-29T01:07:03;8.98;;;2.80;;
52686;SDS011;38584;49.426;8.396;2022-07-29T01:09:29;9.23;;;2.47;;
52686;SDS011;38584;49.426;8.396;2022-07-29T01:11:56;17.52;;;3.17;;
52686;SDS011;38584;49.426;8.396;2022-07-29T01:14:22;15.07;;;2.78;;
52686;SDS011;38584;49.426;8.396;2022-07-29T01:16:51;14.23;;;3.10;;
52686;SDS011;38584;49.426;8.396;2022-07-29T01:19:34;9.43;;;2.70;;
52686;SDS011;38584;49.426;8.396;2022-07-29T01:25:17;9.05;;;2.78;;
52686;SDS011;38584;49.426;8.396;2022-07-29T01:27:57;16.75;;;2.72;;
52686;SDS011;38584;49.426;8.396;2022-07-29T01:30:26;9.50;;;2.35;;
52686;SDS011;38584;49.426;8.396;2022-07-29T01:39:32;15.40;;;2.50;;
52686;SDS011;38584;49.426;8.396;2022-07-29T01:50:45;17.58;;;3.00;;
52686;SDS011;38584;49.426;8.396;2022-07-29T01:53:33;11.73;;;2.53;;
52686;SDS011;38584;49.426;8.396;2022-07-29T01:56:12;12.85;;;3.15;;
52686;SDS011;38584;49.426;8.396;2022-07-29T01:58:46;9.80;;;2.47;;
52686;SDS011;38584;49.426;8.396;2022-07-29T02:01:28;11.95;;;2.70;;
52686;SDS011;38584;49.426;8.396;2022-07-29T02:04:24;11.43;;;2.60;;
52686;SDS011;38584;49.426;8.396;2022-07-29T02:06:54;12.15;;;2.92;;
52686;SDS011;38584;49.426;8.396;2022-07-29T02:09:29;12.95;;;2.60;;
52686;SDS011;38584;49.426;8.396;2022-07-29T02:12:07;6.60;;;2.20;;
52686;SDS011;38584;49.426;8.396;2022-07-29T02:14:44;12.13;;;2.90;;
52686;SDS011;38584;49.426;8.396;2022-07-29T02:17:31;15.32;;;3.00;;
52686;SDS011;38584;49.426;8.396;2022-07-29T02:20:34;15.35;;;2.97;;
52686;SDS011;38584;49.426;8.396;2022-07-29T02:23:09;11.98;;;2.92;;
52686;SDS011;38584;49.426;8.396;2022-07-29T02:25:49;11.30;;;2.92;;
52686;SDS011;38584;49.426;8.396;2022-07-29T02:28:27;10.95;;;2.70;;
52686;SDS011;38584;49.426;8.396;2022-07-29T02:31:08;8.90;;;2.70;;
52686;SDS011;38584;49.426;8.396;2022-07-29T02:33:42;9.93;;;2.40;;
52686;SDS011;38584;49.426;8.396;2022-07-29T02:38:51;15.48;;;2.92;;
52686;SDS011;38584;49.426;8.396;2022-07-29T02:41:33;11.48;;;3.30;;
52686;SDS011;38584;49.426;8.396;2022-07-29T02:44:25;14.20;;;3.05;;
52686;SDS011;38584;49.426;8.396;2022-07-29T02:47:13;14.30;;;2.83;;
52686;SDS011;38584;49.426;8.396;2022-07-29T02:50:24;12.88;;;2.17;;
52686;SDS011;38584;49.426;8.396;2022-07-29T03:00:06;11.68;;;2.50;;
52686;SDS011;38584;49.426;8.396;2022-07-29T03:02:43;9.65;;;2.30;;
52686;SDS011;38584;49.426;8.396;2022-07-29T03:05:37;9.32;;;2.30;;
52686;SDS011;38584;49.426;8.396;2022-07-29T03:08:11;11.30;;;2.25;;
52686;SDS011;38584;49.426;8.396;2022-07-29T03:11:12;9.88;;;2.63;;
52686;SDS011;38584;49.426;8.396;2022-07-29T03:13:55;5.60;;;2.22;;
52686;SDS011;38584;49.426;8.396;2022-07-29T03:22:46;10.40;;;2.47;;
52686;SDS011;38584;49.426;8.396;2022-07-29T03:28:16;13.88;;;3.08;;
52686;SDS011;38584;49.426;8.396;2022-07-29T03:30:47;8.43;;;2.20;;
52686;SDS011;38584;49.426;8.396;2022-07-29T03:45:15;14.35;;;2.40;;
52686;SDS011;38584;49.426;8.396;2022-07-29T03:51:42;11.05;;;2.42;;
52686;SDS011;38584;49.426;8.396;2022-07-29T03:54:19;11.50;;;2.30;;
52686;SDS011;38584;49.426;8.396;2022-07-29T03:57:02;6.85;;;2.38;;
52686;SDS011;38584;49.426;8.396;2022-07-29T04:00:07;10.73;;;2.50;;
52686;SDS011;38584;49.426;8.396;2022-07-29T04:09:57;10.77;;;2.47;;
52686;SDS011;38584;49.426;8.396;2022-07-29T04:12:56;9.57;;;2.42;;
52686;SDS011;38584;49.426;8.396;2022-07-29T04:15:50;10.57;;;2.33;;
52686;SDS011;38584;49.426;8.396;2022-07-29T04:18:16;10.70;;;2.70;;
52686;SDS011;38584;49.426;8.396;2022-07-29T04:20:41;14.05;;;2.35;;
52686;SDS011;38584;49.426;8.396;2022-07-29T04:23:07;8.40;;;2.30;;
52686;SDS011;38584;49.426;8.396;2022-07-29T04:25:32;12.32;;;2.65;;
52686;SDS011;38584;49.426;8.396;2022-07-29T04:27:57;12.02;;;2.45;;
52686;SDS011;38584;49.426;8.396;2022-07-29T04:30:26;9.10;;;2.20;;
52686;SDS011;38584;49.426;8.396;2022-07-29T04:32:51;9.00;;;2.33;;
52686;SDS011;38584;49.426;8.396;2022-07-29T04:35:17;6.53;;;2.30;;
52686;SDS011;38584;49.426;8.396;2022-07-29T04:37:42;17.40;;;2.72;;
52686;SDS011;38584;49.426;8.396;2022-07-29T04:40:08;15.25;;;2.70;;
52686;SDS011;38584;49.426;8.396;2022-07-29T04:42:34;9.35;;;2.25;;
52686;SDS011;38584;49.426;8.396;2022-07-29T04:44:59;8.77;;;2.00;;
52686;SDS011;38584;49.426;8.396;2022-07-29T04:47:24;10.48;;;2.20;;
52686;SDS011;38584;49.426;8.396;2022-07-29T04:49:50;11.93;;;2.40;;
52686;SDS011;38584;49.426;8.396;2022-07-29T04:52:15;11.88;;;2.30;;
52686;SDS011;38584;49.426;8.396;2022-07-29T04:54:40;16.35;;;2.72;;
52686;SDS011;38584;49.426;8.396;2022-07-29T04:57:06;17.17;;;2.60;;
52686;SDS011;38584;49.426;8.396;2022-07-29T04:59:31;14.00;;;2.33;;
52686;SDS011;38584;49.426;8.396;2022-07-29T05:01:56;7.93;;;2.30;;
52686;SDS011;38584;49.426;8.396;2022-07-29T05:04:21;10.68;;;2.28;;
52686;SDS011;38584;49.426;8.396;2022-07-29T05:06:47;10.63;;;2.65;;
52686;SDS011;38584;49.426;8.396;2022-07-29T05:09:13;9.75;;;2.38;;
52686;SDS011;38584;49.426;8.396;2022-07-29T05:11:38;15.60;;;2.40;;
52686;SDS011;38584;49.426;8.396;2022-07-29T05:14:04;9.13;;;2.40;;
52686;SDS011;38584;49.426;8.396;2022-07-29T05:16:29;9.73;;;2.38;;
52686;SDS011;38584;49.426;8.396;2022-07-29T05:18:55;9.55;;;2.40;;
52686;SDS011;38584;49.426;8.396;2022-07-29T05:21:20;11.57;;;2.40;;
52686;SDS011;38584;49.426;8.396;2022-07-29T05:23:45;9.82;;;2.42;;
52686;SDS011;38584;49.426;8.396;2022-07-29T05:26:11;9.68;;;2.17;;
52686;SDS011;38584;49.426;8.396;2022-07-29T05:28:37;14.23;;;2.65;;
52686;SDS011;38584;49.426;8.396;2022-07-29T05:31:02;10.52;;;2.63;;
52686;SDS011;38584;49.426;8.396;2022-07-29T05:33:28;9.93;;;2.30;;
52686;SDS011;38584;49.426;8.396;2022-07-29T05:35:53;15.77;;;2.50;;
52686;SDS011;38584;49.426;8.396;2022-07-29T05:38:19;11.68;;;2.30;;
52686;SDS011;38584;49.426;8.396;2022-07-29T05:40:44;10.23;;;2.25;;
52686;SDS011;38584;49.426;8.396;2022-07-29T05:43:09;10.70;;;2.75;;
52686;SDS011;38584;49.426;8.396;2022-07-29T05:45:35;11.63;;;2.65;;
52686;SDS011;38584;49.426;8.396;2022-07-29T05:48:00;12.02;;;2.70;;
52686;SDS011;38584;49.426;8.396;2022-07-29T05:50:25;10.63;;;2.47;;
52686;SDS011;38584;49.426;8.396;2022-07-29T05:52:51;11.95;;;2.60;;
52686;SDS011;38584;49.426;8.396;2022-07-29T05:55:17;8.10;;;2.10;;
52686;SDS011;38584;49.426;8.396;2022-07-29T05:57:42;15.95;;;2.92;;
52686;SDS011;38584;49.426;8.396;2022-07-29T06:00:09;7.72;;;2.28;;
52686;SDS011;38584;49.426;8.396;2022-07-29T06:02:35;11.05;;;2.60;;
52686;SDS011;38584;49.426;8.396;2022-07-29T06:05:00;12.70;;;2.78;;
52686;SDS011;38584;49.426;8.396;2022-07-29T06:07:26;13.07;;;2.47;;
52686;SDS011;38584;49.426;8.396;2022-07-29T06:09:51;9.45;;;2.75;;
52686;SDS011;38584;49.426;8.396;2022-07-29T06:12:16;10.68;;;2.60;;
52686;SDS011;38584;49.426;8.396;2022-07-29T06:14:41;8.73;;;2.65;;
52686;SDS011;38584;49.426;8.396;2022-07-29T06:17:07;16.08;;;3.05;;
52686;SDS011;38584;49.426;8.396;2022-07-29T06:19:35;14.50;;;3.10;;
52686;SDS011;38584;49.426;8.396;2022-07-29T06:22:01;17.42;;;2.95;;
52686;SDS011;38584;49.426;8.396;2022-07-29T06:24:26;13.07;;;2.50;;
52686;SDS011;38584;49.426;8.396;2022-07-29T06:26:52;15.82;;;3.08;;
52686;SDS011;38584;49.426;8.396;2022-07-29T06:29:17;15.02;;;2.83;;
52686;SDS011;38584;49.426;8.396;2022-07-29T06:31:43;9.55;;;2.72;;
52686;SDS011;38584;49.426;8.396;2022-07-29T06:34:08;13.40;;;2.90;;
52686;SDS011;38584;49.426;8.396;2022-07-29T06:36:34;10.50;;;2.55;;
52686;SDS011;38584;49.426;8.396;2022-07-29T06:39:01;13.93;;;3.20;;
52686;SDS011;38584;49.426;8.396;2022-07-29T06:41:26;10.60;;;2.78;;
52686;SDS011;38584;49.426;8.396;2022-07-29T06:43:51;14.15;;;3.00;;
52686;SDS011;38584;49.426;8.396;2022-07-29T06:46:17;11.98;;;3.00;;
52686;SDS011;38584;49.426;8.396;2022-07-29T06:48:43;13.43;;;2.92;;
52686;SDS011;38584;49.426;8.396;2022-07-29T06:51:09;11.25;;;2.80;;
52686;SDS011;38584;49.426;8.396;2022-07-29T06:53:36;12.93;;;3.30;;
52686;SDS011;38584;49.426;8.396;2022-07-29T06:56:02;14.27;;;2.92;;
52686;SDS011;38584;49.426;8.396;2022-07-29T06:58:29;10.23;;;2.80;;
52686;SDS011;38584;49.426;8.396;2022-07-29T07:00:55;9.60;;;3.00;;
52686;SDS011;38584;49.426;8.396;2022-07-29T07:03:22;15.85;;;3.53;;
52686;SDS011;38584;49.426;8.396;2022-07-29T07:05:47;8.43;;;2.42;;
52686;SDS011;38584;49.426;8.396;2022-07-29T07:08:13;16.40;;;3.20;;
52686;SDS011;38584;49.426;8.396;2022-07-29T07:10:39;11.43;;;3.00;;
52686;SDS011;38584;49.426;8.396;2022-07-29T07:13:05;13.50;;;4.07;;
52686;SDS011;38584;49.426;8.396;2022-07-29T07:15:30;9.35;;;3.35;;
52686;SDS011;38584;49.426;8.396;2022-07-29T07:17:56;13.50;;;3.83;;
52686;SDS011;38584;49.426;8.396;2022-07-29T07:20:22;9.63;;;3.33;;
52686;SDS011;38584;49.426;8.396;2022-07-29T07:22:48;10.73;;;3.28;;
52686;SDS011;38584;49.426;8.396;2022-07-29T07:25:13;11.68;;;3.28;;
52686;SDS011;38584;49.426;8.396;2022-07-29T07:27:38;9.65;;;3.30;;
52686;SDS011;38584;49.426;8.396;2022-07-29T07:30:04;14.52;;;3.25;;
52686;SDS011;38584;49.426;8.396;2022-07-29T07:32:31;12.30;;;3.17;;
52686;SDS011;38584;49.426;8.396;2022-07-29T07:34:57;9.95;;;3.28;;
52686;SDS011;38584;49.426;8.396;2022-07-29T07:37:23;11.63;;;3.15;;
52686;SDS011;38584;49.426;8.396;2022-07-29T07:39:49;10.40;;;3.13;;
52686;SDS011;38584;49.426;8.396;2022-07-29T07:42:15;13.45;;;3.22;;
52686;SDS011;38584;49.426;8.396;2022-07-29T07:44:40;9.52;;;3.10;;
52686;SDS011;38584;49.426;8.396;2022-07-29T07:47:06;14.60;;;3.42;;
52686;SDS011;38584;49.426;8.396;2022-07-29T07:49:31;17.23;;;3.80;;
52686;SDS011;38584;49.426;8.396;2022-07-29T07:51:56;10.15;;;3.33;;
52686;SDS011;38584;49.426;8.396;2022-07-29T07:54:22;14.82;;;3.10;;
52686;SDS011;38584;49.426;8.396;2022-07-29T07:56:47;16.83;;;3.40;;
52686;SDS011;38584;49.426;8.396;2022-07-29T07:59:16;17.15;;;3.35;;
52686;SDS011;38584;49.426;8.396;2022-07-29T08:01:42;16.52;;;3.78;;
52686;SDS011;38584;49.426;8.396;2022-07-29T08:04:08;14.63;;;3.60;;
52686;SDS011;38584;49.426;8.396;2022-07-29T08:06:33;18.65;;;3.70;;
52686;SDS011;38584;49.426;8.396;2022-07-29T08:09:03;16.38;;;3.05;;
52686;SDS011;38584;49.426;8.396;2022-07-29T08:11:28;13.20;;;3.60;;
52686;SDS011;38584;49.426;8.396;2022-07-29T08:13:54;13.00;;;3.15;;
52686;SDS011;38584;49.426;8.396;2022-07-29T08:16:19;15.50;;;3.72;;
52686;SDS011;38584;49.426;8.396;2022-07-29T08:18:45;16.20;;;3.63;;
52686;SDS011;38584;49.426;8.396;2022-07-29T08:21:11;14.23;;;3.30;;
52686;SDS011;38584;49.426;8.396;2022-07-29T08:23:36;11.38;;;3.35;;
52686;SDS011;38584;49.426;8.396;2022-07-29T08:26:10;19.63;;;3.47;;
52686;SDS011;38584;49.426;8.396;2022-07-29T08:28:37;12.98;;;3.90;;
52686;SDS011;38584;49.426;8.396;2022-07-29T08:31:02;14.38;;;3.60;;
52686;SDS011;38584;49.426;8.396;2022-07-29T08:33:28;12.60;;;3.95;;
52686;SDS011;38584;49.426;8.396;2022-07-29T08:35:53;14.50;;;3.30;;
52686;SDS011;38584;49.426;8.396;2022-07-29T08:38:18;15.70;;;3.70;;
52686;SDS011;38584;49.426;8.396;2022-07-29T08:40:44;10.00;;;3.47;;
52686;SDS011;38584;49.426;8.396;2022-07-29T08:43:10;13.98;;;4.00;;
52686;SDS011;38584;49.426;8.396;2022-07-29T08:48:09;10.68;;;3.60;;
52686;SDS011;38584;49.426;8.396;2022-07-29T08:50:37;10.75;;;3.60;;
52686;SDS011;38584;49.426;8.396;2022-07-29T08:53:03;10.05;;;3.22;;
52686;SDS011;38584;49.426;8.396;2022-07-29T08:55:28;12.52;;;3.58;;
52686;SDS011;38584;49.426;8.396;2022-07-29T08:57:54;11.52;;;3.58;;
52686;SDS011;38584;49.426;8.396;2022-07-29T09:00:20;8.77;;;3.55;;
52686;SDS011;38584;49.426;8.396;2022-07-29T09:02:47;10.65;;;3.60;;
52686;SDS011;38584;49.426;8.396;2022-07-29T09:05:16;10.52;;;3.40;;
52686;SDS011;38584;49.426;8.396;2022-07-29T09:07:42;10.77;;;3.17;;
52686;SDS011;38584;49.426;8.396;2022-07-29T09:10:08;9.98;;;3.70;;
52686;SDS011;38584;49.426;8.396;2022-07-29T09:12:34;13.68;;;4.40;;
52686;SDS011;38584;49.426;8.396;2022-07-29T09:14:59;13.95;;;4.88;;
52686;SDS011;38584;49.426;8.396;2022-07-29T09:17:44;15.73;;;4.40;;
52686;SDS011;38584;49.426;8.396;2022-07-29T09:20:11;14.68;;;3.60;;
52686;SDS011;38584;49.426;8.396;2022-07-29T09:22:38;10.68;;;3.53;;
52686;SDS011;38584;49.426;8.396;2022-07-29T09:25:03;13.50;;;3.70;;
52686;SDS011;38584;49.426;8.396;2022-07-29T09:27:29;13.27;;;4.00;;
52686;SDS011;38584;49.426;8.396;2022-07-29T09:30:02;9.88;;;3.60;;
52686;SDS011;38584;49.426;8.396;2022-07-29T09:32:30;10.57;;;3.85;;
52686;SDS011;38584;49.426;8.396;2022-07-29T09:37:41;14.40;;;3.85;;
52686;SDS011;38584;49.426;8.396;2022-07-29T09:40:11;11.45;;;3.90;;
52686;SDS011;38584;49.426;8.396;2022-07-29T09:42:41;13.35;;;3.25;;
52686;SDS011;38584;49.426;8.396;2022-07-29T09:45:06;13.02;;;3.78;;
52686;SDS011;38584;49.426;8.396;2022-07-29T09:47:45;11.82;;;3.70;;
52686;SDS011;38584;49.426;8.396;2022-07-29T09:50:13;11.93;;;3.80;;
52686;SDS011;38584;49.426;8.396;2022-07-29T09:52:47;12.13;;;3.80;;
52686;SDS011;38584;49.426;8.396;2022-07-29T09:55:14;12.43;;;3.70;;
52686;SDS011;38584;49.426;8.396;2022-07-29T09:57:39;9.52;;;3.90;;
52686;SDS011;38584;49.426;8.396;2022-07-29T10:02:33;13.30;;;3.72;;
52686;SDS011;38584;49.426;8.396;2022-07-29T10:05:00;12.95;;;3.88;;
52686;SDS011;38584;49.426;8.396;2022-07-29T10:07:29;10.82;;;3.65;;
52686;SDS011;38584;49.426;8.396;2022-07-29T10:10:08;12.75;;;3.92;;
52686;SDS011;38584;49.426;8.396;2022-07-29T10:12:33;9.40;;;3.58;;
52686;SDS011;38584;49.426;8.396;2022-07-29T10:17:38;17.00;;;4.13;;
52686;SDS011;38584;49.426;8.396;2022-07-29T10:20:03;12.73;;;3.65;;
52686;SDS011;38584;49.426;8.396;2022-07-29T10:22:29;9.55;;;3.70;;
52686;SDS011;38584;49.426;8.396;2022-07-29T10:24:55;10.20;;;3.53;;
52686;SDS011;38584;49.426;8.396;2022-07-29T10:27:20;11.15;;;3.83;;
52686;SDS011;38584;49.426;8.396;2022-07-29T10:29:45;13.80;;;3.80;;
52686;SDS011;38584;49.426;8.396;2022-07-29T10:34:43;12.10;;;3.97;;
52686;SDS011;38584;49.426;8.396;2022-07-29T10:42:52;12.90;;;3.53;;
52686;SDS011;38584;49.426;8.396;2022-07-29T10:45:18;11.80;;;3.42;;
52686;SDS011;38584;49.426;8.396;2022-07-29T10:47:43;9.30;;;3.50;;
52686;SDS011;38584;49.426;8.396;2022-07-29T10:50:09;16.10;;;3.58;;
52686;SDS011;38584;49.426;8.396;2022-07-29T10:55:32;10.48;;;3.33;;
52686;SDS011;38584;49.426;8.396;2022-07-29T10:58:12;9.48;;;3.50;;
52686;SDS011;38584;49.426;8.396;2022-07-29T11:00:40;13.80;;;3.63;;
52686;SDS011;38584;49.426;8.396;2022-07-29T11:03:06;12.70;;;3.60;;
52686;SDS011;38584;49.426;8.396;2022-07-29T11:05:51;11.30;;;3.40;;
52686;SDS011;38584;49.426;8.396;2022-07-29T11:08:19;13.73;;;3.42;;
52686;SDS011;38584;49.426;8.396;2022-07-29T11:10:50;10.40;;;3.47;;
52686;SDS011;38584;49.426;8.396;2022-07-29T11:16:13;11.65;;;3.65;;
52686;SDS011;38584;49.426;8.396;2022-07-29T11:21:35;11.02;;;3.55;;
52686;SDS011;38584;49.426;8.396;2022-07-29T11:24:11;11.80;;;3.58;;
52686;SDS011;38584;49.426;8.396;2022-07-29T11:26:40;13.38;;;3.53;;
52686;SDS011;38584;49.426;8.396;2022-07-29T11:29:15;9.63;;;2.88;;
52686;SDS011;38584;49.426;8.396;2022-07-29T11:31:44;10.38;;;3.58;;
52686;SDS011;38584;49.426;8.396;2022-07-29T11:34:17;13.65;;;3.78;;
52686;SDS011;38584;49.426;8.396;2022-07-29T11:37:28;11.02;;;4.00;;
52686;SDS011;38584;49.426;8.396;2022-07-29T11:39:31;11.93;;;3.28;;
52686;SDS011;38584;49.426;8.396;2022-07-29T11:47:20;11.60;;;3.30;;
52686;SDS011;38584;49.426;8.396;2022-07-29T11:49:46;7.97;;;2.80;;
52686;SDS011;38584;49.426;8.396;2022-07-29T11:52:12;10.65;;;3.28;;
52686;SDS011;38584;49.426;8.396;2022-07-29T11:54:38;10.00;;;3.45;;
52686;SDS011;38584;49.426;8.396;2022-07-29T11:57:06;14.77;;;3.63;;
52686;SDS011;38584;49.426;8.396;2022-07-29T11:59:31;9.98;;;3.58;;
52686;SDS011;38584;49.426;8.396;2022-07-29T12:02:04;12.52;;;3.65;;
52686;SDS011;38584;49.426;8.396;2022-07-29T12:04:29;12.20;;;3.30;;
52686;SDS011;38584;49.426;8.396;2022-07-29T12:07:07;12.55;;;3.47;;
52686;SDS011;38584;49.426;8.396;2022-07-29T12:09:32;14.48;;;4.03;;
52686;SDS011;38584;49.426;8.396;2022-07-29T12:11:58;13.60;;;3.60;;
52686;SDS011;38584;49.426;8.396;2022-07-29T12:14:31;14.88;;;3.20;;
52686;SDS011;38584;49.426;8.396;2022-07-29T12:16:58;12.68;;;3.50;;
52686;SDS011;38584;49.426;8.396;2022-07-29T12:19:24;8.18;;;2.88;;
52686;SDS011;38584;49.426;8.396;2022-07-29T12:21:51;12.57;;;3.22;;
52686;SDS011;38584;49.426;8.396;2022-07-29T12:24:19;8.88;;;3.08;;
52686;SDS011;38584;49.426;8.396;2022-07-29T12:26:55;8.43;;;3.42;;
52686;SDS011;38584;49.426;8.396;2022-07-29T12:29:23;15.13;;;3.55;;
52686;SDS011;38584;49.426;8.396;2022-07-29T12:31:53;11.77;;;3.00;;
52686;SDS011;38584;49.426;8.396;2022-07-29T12:34:19;11.70;;;3.75;;
52686;SDS011;38584;49.426;8.396;2022-07-29T12:36:46;9.70;;;3.20;;
52686;SDS011;38584;49.426;8.396;2022-07-29T12:39:11;8.93;;;2.97;;
52686;SDS011;38584;49.426;8.396;2022-07-29T12:41:37;9.82;;;3.30;;
52686;SDS011;38584;49.426;8.396;2022-07-29T12:44:03;11.02;;;3.20;;
52686;SDS011;38584;49.426;8.396;2022-07-29T12:46:29;10.13;;;3.20;;
52686;SDS011;38584;49.426;8.396;2022-07-29T12:48:54;10.30;;;2.95;;
52686;SDS011;38584;49.426;8.396;2022-07-29T12:51:29;9.55;;;3.15;;
52686;SDS011;38584;49.426;8.396;2022-07-29T12:54:06;8.75;;;3.10;;
52686;SDS011;38584;49.426;8.396;2022-07-29T12:56:36;7.80;;;2.95;;
52686;SDS011;38584;49.426;8.396;2022-07-29T13:01:38;11.02;;;3.22;;
52686;SDS011;38584;49.426;8.396;2022-07-29T13:04:03;9.77;;;3.53;;
52686;SDS011;38584;49.426;8.396;2022-07-29T13:09:14;10.27;;;3.35;;
52686;SDS011;38584;49.426;8.396;2022-07-29T13:11:51;12.40;;;3.55;;
52686;SDS011;38584;49.426;8.396;2022-07-29T13:19:45;7.60;;;3.08;;
52686;SDS011;38584;49.426;8.396;2022-07-29T13:22:15;10.68;;;2.95;;
52686;SDS011;38584;49.426;8.396;2022-07-29T13:24:45;8.98;;;3.20;;
52686;SDS011;38584;49.426;8.396;2022-07-29T13:27:11;12.60;;;3.00;;
52686;SDS011;38584;49.426;8.396;2022-07-29T13:29:36;9.48;;;3.00;;
52686;SDS011;38584;49.426;8.396;2022-07-29T13:32:05;8.07;;;2.92;;
52686;SDS011;38584;49.426;8.396;2022-07-29T13:34:30;11.10;;;3.00;;
52686;SDS011;38584;49.426;8.396;2022-07-29T13:37:05;15.07;;;3.25;;
52686;SDS011;38584;49.426;8.396;2022-07-29T13:39:30;7.57;;;2.97;;
52686;SDS011;38584;49.426;8.396;2022-07-29T13:41:56;8.43;;;2.58;;
52686;SDS011;38584;49.426;8.396;2022-07-29T13:44:21;10.75;;;2.78;;
52686;SDS011;38584;49.426;8.396;2022-07-29T13:46:46;11.10;;;2.60;;
52686;SDS011;38584;49.426;8.396;2022-07-29T13:49:12;6.68;;;2.47;;
52686;SDS011;38584;49.426;8.396;2022-07-29T13:51:37;7.00;;;2.80;;
52686;SDS011;38584;49.426;8.396;2022-07-29T13:54:03;9.70;;;2.85;;
52686;SDS011;38584;49.426;8.396;2022-07-29T13:56:28;10.18;;;2.78;;
52686;SDS011;38584;49.426;8.396;2022-07-29T13:58:54;10.55;;;2.70;;
52686;SDS011;38584;49.426;8.396;2022-07-29T14:01:19;9.20;;;2.78;;
52686;SDS011;38584;49.426;8.396;2022-07-29T14:03:44;9.50;;;2.92;;
52686;SDS011;38584;49.426;8.396;2022-07-29T14:06:10;8.52;;;2.60;;
52686;SDS011;38584;49.426;8.396;2022-07-29T14:08:35;10.07;;;3.22;;
52686;SDS011;38584;49.426;8.396;2022-07-29T14:11:04;8.52;;;2.65;;
52686;SDS011;38584;49.426;8.396;2022-07-29T14:13:29;11.23;;;2.70;;
52686;SDS011;38584;49.426;8.396;2022-07-29T14:15:54;8.68;;;2.67;;
52686;SDS011;38584;49.426;8.396;2022-07-29T14:18:20;9.40;;;2.60;;
52686;SDS011;38584;49.426;8.396;2022-07-29T14:20:45;11.20;;;2.67;;
52686;SDS011;38584;49.426;8.396;2022-07-29T14:23:10;8.98;;;2.60;;
52686;SDS011;38584;49.426;8.396;2022-07-29T14:25:36;9.02;;;2.80;;
52686;SDS011;38584;49.426;8.396;2022-07-29T14:28:01;7.50;;;2.65;;
52686;SDS011;38584;49.426;8.396;2022-07-29T14:30:26;8.52;;;2.50;;
52686;SDS011;38584;49.426;8.396;2022-07-29T14:32:52;7.45;;;2.58;;
52686;SDS011;38584;49.426;8.396;2022-07-29T14:35:17;9.02;;;2.22;;
52686;SDS011;38584;49.426;8.396;2022-07-29T14:37:42;13.57;;;2.60;;
52686;SDS011;38584;49.426;8.396;2022-07-29T14:40:08;12.80;;;2.42;;
52686;SDS011;38584;49.426;8.396;2022-07-29T14:42:35;7.10;;;2.30;;
52686;SDS011;38584;49.426;8.396;2022-07-29T14:45:02;7.10;;;2.30;;
52686;SDS011;38584;49.426;8.396;2022-07-29T14:47:27;5.78;;;2.47;;
52686;SDS011;38584;49.426;8.396;2022-07-29T14:49:52;8.07;;;2.38;;
52686;SDS011;38584;49.426;8.396;2022-07-29T14:52:18;6.50;;;2.30;;
52686;SDS011;38584;49.426;8.396;2022-07-29T14:54:43;4.75;;;2.30;;
52686;SDS011;38584;49.426;8.396;2022-07-29T14:57:08;6.40;;;2.15;;
52686;SDS011;38584;49.426;8.396;2022-07-29T14:59:34;5.88;;;2.08;;
52686;SDS011;38584;49.426;8.396;2022-07-29T15:01:59;7.70;;;2.40;;
52686;SDS011;38584;49.426;8.396;2022-07-29T15:04:25;6.32;;;2.22;;
52686;SDS011;38584;49.426;8.396;2022-07-29T15:06:50;9.63;;;2.50;;
52686;SDS011;38584;49.426;8.396;2022-07-29T15:09:16;8.00;;;2.80;;
52686;SDS011;38584;49.426;8.396;2022-07-29T15:11:42;7.63;;;2.22;;
52686;SDS011;38584;49.426;8.396;2022-07-29T15:14:07;6.93;;;2.10;;
52686;SDS011;38584;49.426;8.396;2022-07-29T15:16:35;6.00;;;2.00;;
52686;SDS011;38584;49.426;8.396;2022-07-29T15:19:01;4.15;;;1.80;;
52686;SDS011;38584;49.426;8.396;2022-07-29T15:21:27;4.97;;;1.90;;
52686;SDS011;38584;49.426;8.396;2022-07-29T15:23:52;9.10;;;2.05;;
52686;SDS011;38584;49.426;8.396;2022-07-29T15:26:18;15.18;;;2.33;;
52686;SDS011;38584;49.426;8.396;2022-07-29T15:28:44;5.85;;;2.03;;
52686;SDS011;38584;49.426;8.396;2022-07-29T15:31:09;6.28;;;1.92;;
52686;SDS011;38584;49.426;8.396;2022-07-29T15:33:35;5.65;;;2.10;;
52686;SDS011;38584;49.426;8.396;2022-07-29T15:36:00;8.07;;;2.28;;
52686;SDS011;38584;49.426;8.396;2022-07-29T15:38:25;5.35;;;1.90;;
52686;SDS011;38584;49.426;8.396;2022-07-29T15:40:51;5.65;;;2.10;;
52686;SDS011;38584;49.426;8.396;2022-07-29T15:43:16;6.72;;;1.92;;
52686;SDS011;38584;49.426;8.396;2022-07-29T15:45:42;5.53;;;2.03;;
52686;SDS011;38584;49.426;8.396;2022-07-29T15:48:30;8.57;;;2.25;;
52686;SDS011;38584;49.426;8.396;2022-07-29T15:50:56;5.47;;;2.00;;
52686;SDS011;38584;49.426;8.396;2022-07-29T15:53:21;6.97;;;1.95;;
52686;SDS011;38584;49.426;8.396;2022-07-29T15:55:47;6.10;;;2.00;;
52686;SDS011;38584;49.426;8.396;2022-07-29T15:58:12;9.20;;;1.85;;
52686;SDS011;38584;49.426;8.396;2022-07-29T16:00:37;7.30;;;2.03;;
52686;SDS011;38584;49.426;8.396;2022-07-29T16:03:03;5.60;;;1.90;;
52686;SDS011;38584;49.426;8.396;2022-07-29T16:05:28;6.35;;;2.10;;
52686;SDS011;38584;49.426;8.396;2022-07-29T16:07:53;10.77;;;2.00;;
52686;SDS011;38584;49.426;8.396;2022-07-29T16:10:19;10.13;;;1.90;;
52686;SDS011;38584;49.426;8.396;2022-07-29T16:12:44;9.93;;;1.98;;
52686;SDS011;38584;49.426;8.396;2022-07-29T16:15:10;5.35;;;2.10;;
52686;SDS011;38584;49.426;8.396;2022-07-29T16:17:35;6.00;;;1.90;;
52686;SDS011;38584;49.426;8.396;2022-07-29T16:20:01;4.85;;;1.80;;
52686;SDS011;38584;49.426;8.396;2022-07-29T16:22:27;6.63;;;1.70;;
52686;SDS011;38584;49.426;8.396;2022-07-29T16:24:52;11.43;;;2.10;;
52686;SDS011;38584;49.426;8.396;2022-07-29T16:27:18;5.97;;;1.90;;
52686;SDS011;38584;49.426;8.396;2022-07-29T16:29:48;10.45;;;2.17;;